Time;durP1;ratioP1;P1;durP2;ratioP2;P2;SDS_P1;SDS_P2;PMS_P1;PMS_P2;Temp;Humidity;BMP_temperature;BMP_pressure;BME280_temperature;BME280_humidity;BME280_pressure;Samples;Min_cycle;Max_cycle;Signal;HPM_P1;HPM_P2
2022/11/15 00:01:38;;;;;;;32.50;22.93;;;7.90;99.90;;;;;;5113435;27;20396;-74
2022/11/15 00:04:05;;;;;;;33.97;23.65;;;7.90;99.90;;;;;;5114580;27;20434;-73
2022/11/15 00:06:31;;;;;;;33.92;23.80;;;7.90;99.90;;;;;;5122389;27;20407;-73
2022/11/15 00:09:00;;;;;;;32.40;23.13;;;7.90;99.90;;;;;;5131905;27;20402;-74
2022/11/15 00:11:26;;;;;;;31.10;22.05;;;7.90;99.90;;;;;;5131131;27;20430;-74
2022/11/15 00:13:55;;;;;;;31.33;22.55;;;7.90;99.90;;;;;;5121893;27;20491;-74
2022/11/15 00:16:22;;;;;;;31.60;21.88;;;7.90;99.90;;;;;;5105544;28;20937;-73
2022/11/15 00:18:48;;;;;;;30.55;22.67;;;7.90;99.90;;;;;;5129426;27;20398;-74
2022/11/15 00:21:15;;;;;;;29.90;22.50;;;8.00;99.90;;;;;;5130491;27;20399;-74
2022/11/15 00:23:41;;;;;;;30.83;21.75;;;7.90;99.90;;;;;;5091042;28;20494;-74
2022/11/15 00:26:10;;;;;;;32.70;22.90;;;8.00;99.90;;;;;;5122117;27;20487;-74
2022/11/15 00:28:36;;;;;;;31.25;21.63;;;7.90;99.90;;;;;;5125964;27;20406;-73
2022/11/15 00:31:06;;;;;;;30.27;21.70;;;7.90;99.90;;;;;;5123331;27;20398;-74
2022/11/15 00:33:33;;;;;;;30.40;21.33;;;7.90;99.90;;;;;;5131468;27;20752;-74
2022/11/15 00:36:04;;;;;;;32.03;22.13;;;7.90;99.90;;;;;;5116584;27;20497;-73
2022/11/15 00:38:34;;;;;;;29.63;21.48;;;7.90;99.90;;;;;;5111486;27;20430;-73
2022/11/15 00:41:01;;;;;;;30.02;21.27;;;7.90;99.90;;;;;;5117114;27;20483;-74
2022/11/15 00:43:26;;;;;;;31.02;21.58;;;7.90;99.90;;;;;;5114902;27;20408;-74
2022/11/15 00:45:52;;;;;;;31.25;21.83;;;7.90;99.90;;;;;;5094425;27;20959;-74
2022/11/15 00:48:18;;;;;;;31.90;22.33;;;7.90;99.90;;;;;;5088498;28;20412;-74
2022/11/15 00:50:43;;;;;;;30.47;22.07;;;7.80;99.90;;;;;;5104525;27;20401;-74
2022/11/15 00:53:09;;;;;;;31.95;22.08;;;7.80;99.90;;;;;;5130660;27;20399;-73
2022/11/15 00:55:34;;;;;;;30.37;21.60;;;7.70;99.90;;;;;;5112148;27;20438;-73
2022/11/15 00:58:00;;;;;;;29.80;21.48;;;7.60;99.90;;;;;;5129737;27;20395;-74
2022/11/15 01:00:25;;;;;;;32.63;22.87;;;7.60;99.90;;;;;;5118331;27;20396;-74
2022/11/15 01:02:51;;;;;;;32.75;22.05;;;7.50;99.90;;;;;;5116171;27;20403;-74
2022/11/15 01:05:17;;;;;;;31.33;22.77;;;7.50;99.90;;;;;;5130877;27;20395;-74
2022/11/15 01:07:42;;;;;;;31.35;22.27;;;7.40;99.90;;;;;;5103397;28;20404;-74
2022/11/15 01:10:08;;;;;;;33.15;21.98;;;7.40;99.90;;;;;;5111733;27;20774;-73
2022/11/15 01:12:35;;;;;;;31.37;22.47;;;7.40;99.90;;;;;;5105280;28;20488;-73
2022/11/15 01:15:01;;;;;;;32.40;23.00;;;7.40;99.90;;;;;;5122750;27;20426;-74
2022/11/15 01:17:27;;;;;;;29.88;21.58;;;7.30;99.90;;;;;;5108809;28;20391;-73
2022/11/15 01:19:52;;;;;;;32.05;21.98;;;7.30;99.90;;;;;;5121075;27;20737;-73
2022/11/15 01:22:18;;;;;;;32.23;22.57;;;7.20;99.90;;;;;;5109899;27;20398;-73
2022/11/15 01:24:44;;;;;;;32.10;22.42;;;7.20;99.90;;;;;;5130391;27;20391;-74
2022/11/15 01:27:09;;;;;;;31.67;22.13;;;7.20;99.90;;;;;;5129824;27;20839;-74
2022/11/15 01:29:35;;;;;;;31.37;21.57;;;7.20;99.90;;;;;;5130082;27;20790;-73
2022/11/15 01:32:01;;;;;;;28.60;21.20;;;7.10;99.90;;;;;;5110697;27;20398;-73
2022/11/15 01:34:26;;;;;;;27.00;20.10;;;7.10;99.90;;;;;;5120180;27;20400;-73
2022/11/15 01:36:52;;;;;;;29.35;21.15;;;7.10;99.90;;;;;;5129235;27;20485;-73
2022/11/15 01:39:18;;;;;;;29.07;21.03;;;7.00;99.90;;;;;;5127262;27;20391;-73
2022/11/15 01:41:43;;;;;;;27.77;20.23;;;7.00;99.90;;;;;;5116437;27;20405;-74
2022/11/15 01:44:37;;;;;;;28.58;20.45;;;7.00;99.90;;;;;;5113166;27;20407;-73
2022/11/15 01:47:36;;;;;;;26.23;19.57;;;7.00;99.90;;;;;;5111601;27;20430;-73
2022/11/15 01:50:06;;;;;;;25.65;18.75;;;7.00;99.90;;;;;;5094805;28;20970;-73
2022/11/15 01:52:33;;;;;;;26.65;19.08;;;7.10;99.90;;;;;;5127364;27;20395;-73
2022/11/15 01:55:15;;;;;;;28.67;19.70;;;7.10;99.90;;;;;;5093253;28;20459;-74
2022/11/15 01:57:43;;;;;;;25.65;19.45;;;7.20;99.90;;;;;;5104297;28;20409;-73
2022/11/15 02:00:10;;;;;;;24.67;18.83;;;7.20;99.90;;;;;;5120203;27;20398;-74
2022/11/15 02:02:36;;;;;;;26.58;19.00;;;7.30;99.90;;;;;;5110077;27;20397;-73
2022/11/15 02:05:03;;;;;;;26.17;19.42;;;7.30;99.90;;;;;;5129635;27;20747;-74
2022/11/15 02:07:31;;;;;;;26.20;19.60;;;7.40;99.90;;;;;;5099831;27;20426;-73
2022/11/15 02:10:03;;;;;;;26.33;20.45;;;7.40;99.90;;;;;;5129259;27;20391;-73
2022/11/15 02:12:29;;;;;;;27.50;21.48;;;7.40;99.90;;;;;;5124454;27;20442;-73
2022/11/15 02:14:56;;;;;;;29.50;21.77;;;7.40;99.90;;;;;;5115799;27;20453;-74
2022/11/15 02:17:27;;;;;;;29.30;22.17;;;7.50;99.90;;;;;;5129208;27;20776;-74
2022/11/15 02:20:29;;;;;;;30.42;22.58;;;7.50;99.90;;;;;;5129532;27;20463;-73
2022/11/15 02:23:24;;;;;;;30.38;22.50;;;7.50;99.90;;;;;;5109118;28;20977;-74
2022/11/15 02:26:14;;;;;;;31.40;22.87;;;7.60;99.90;;;;;;5119485;28;20520;-73
2022/11/15 02:29:02;;;;;;;30.80;23.15;;;7.60;99.90;;;;;;5122797;28;20448;-74
2022/11/15 02:31:30;;;;;;;30.63;21.80;;;7.60;99.90;;;;;;5129203;28;20908;-74
2022/11/15 02:34:23;;;;;;;29.23;21.60;;;7.70;99.90;;;;;;5107604;28;20412;-73
2022/11/15 02:37:00;;;;;;;31.40;22.10;;;7.70;99.90;;;;;;5123438;28;20405;-74
2022/11/15 02:39:44;;;;;;;32.33;22.43;;;7.70;99.90;;;;;;5129109;28;20467;-74
2022/11/15 02:45:17;;;;;;;30.73;20.92;;;7.70;99.90;;;;;;5112420;28;20403;-73
2022/11/15 02:47:46;;;;;;;32.63;22.70;;;7.80;99.90;;;;;;5126569;27;20407;-73
2022/11/15 02:50:17;;;;;;;32.67;21.95;;;7.80;99.90;;;;;;5123954;27;20398;-74
2022/11/15 02:52:46;;;;;;;32.70;22.17;;;7.80;99.90;;;;;;5097519;27;20407;-74
2022/11/15 02:55:33;;;;;;;31.98;22.02;;;7.80;99.90;;;;;;5120107;27;20941;-73
2022/11/15 02:58:42;;;;;;;33.45;21.52;;;7.80;99.90;;;;;;5106531;28;20404;-73
2022/11/15 03:01:17;;;;;;;33.17;20.93;;;7.90;99.90;;;;;;5120685;27;20403;-73
2022/11/15 03:04:12;;;;;;;34.40;21.75;;;7.90;99.90;;;;;;5132503;27;20545;-73
2022/11/15 03:06:57;;;;;;;31.85;20.55;;;7.90;99.90;;;;;;5098862;28;20420;-73
2022/11/15 03:09:37;;;;;;;32.17;20.80;;;7.90;99.90;;;;;;5110849;28;20411;-74
2022/11/15 03:12:21;;;;;;;32.05;20.50;;;7.90;99.90;;;;;;5107376;28;20572;-74
2022/11/15 03:14:46;;;;;;;31.27;20.23;;;7.90;99.90;;;;;;5121576;27;20943;-73
2022/11/15 03:17:35;;;;;;;32.57;20.77;;;7.90;99.90;;;;;;5132185;27;20489;-73
2022/11/15 03:20:05;;;;;;;31.57;19.70;;;7.90;99.90;;;;;;5116852;27;20402;-73
2022/11/15 03:22:36;;;;;;;32.42;20.48;;;7.90;99.90;;;;;;5132811;27;20930;-73
2022/11/15 03:25:05;;;;;;;30.47;20.37;;;7.90;99.90;;;;;;5123672;27;20426;-74
2022/11/15 03:27:37;;;;;;;32.75;19.63;;;8.00;99.90;;;;;;5096985;27;20407;-74
2022/11/15 03:30:06;;;;;;;35.15;21.73;;;7.90;99.90;;;;;;5131864;27;20397;-73
2022/11/15 03:32:37;;;;;;;37.80;22.00;;;7.90;99.90;;;;;;5120717;27;20412;-74
2022/11/15 03:35:08;;;;;;;38.78;22.55;;;8.00;99.90;;;;;;5114270;27;20432;-73
2022/11/15 03:37:42;;;;;;;35.38;22.02;;;8.00;99.90;;;;;;5126286;27;20411;-73
2022/11/15 03:40:09;;;;;;;39.22;23.98;;;8.00;99.90;;;;;;5120668;27;20466;-73
2022/11/15 03:43:02;;;;;;;38.35;23.75;;;8.00;99.90;;;;;;5124145;27;20859;-73
2022/11/15 03:45:35;;;;;;;38.83;22.95;;;8.00;99.90;;;;;;5089491;27;20414;-74
2022/11/15 03:48:26;;;;;;;35.63;22.92;;;8.00;99.90;;;;;;5131748;27;20397;-73
2022/11/15 03:50:53;;;;;;;34.15;22.08;;;8.10;99.90;;;;;;5076565;28;20906;-73
2022/11/15 03:53:18;;;;;;;34.30;21.60;;;8.10;99.90;;;;;;5121864;27;20473;-73
2022/11/15 03:55:44;;;;;;;33.80;22.00;;;8.10;99.90;;;;;;5131818;27;20502;-72
2022/11/15 03:58:10;;;;;;;36.72;21.90;;;8.10;99.90;;;;;;5112686;27;20395;-73
2022/11/15 04:00:35;;;;;;;32.67;21.20;;;8.10;99.90;;;;;;5113616;27;20395;-73
2022/11/15 04:03:01;;;;;;;33.33;21.93;;;8.10;99.90;;;;;;5131730;27;20939;-73
2022/11/15 04:05:27;;;;;;;34.60;21.35;;;8.10;99.90;;;;;;5131320;27;20407;-73
2022/11/15 04:07:52;;;;;;;32.13;21.20;;;8.10;99.90;;;;;;5131665;27;20426;-73
2022/11/15 04:10:18;;;;;;;35.83;21.73;;;8.10;99.90;;;;;;5112410;27;20475;-73
2022/11/15 04:12:47;;;;;;;34.72;21.75;;;8.10;99.90;;;;;;5132174;27;20397;-73
2022/11/15 04:15:18;;;;;;;34.60;21.83;;;8.10;99.90;;;;;;5130514;27;20513;-73
2022/11/15 04:17:45;;;;;;;38.00;22.93;;;8.10;99.90;;;;;;5124981;27;20405;-73
2022/11/15 04:25:45;;;;;;;39.28;22.05;;;8.10;99.90;;;;;;5112528;27;20407;-74
2022/11/15 04:28:11;;;;;;;35.10;21.92;;;8.10;99.90;;;;;;5099608;27;20395;-73
2022/11/15 04:30:37;;;;;;;39.53;23.65;;;8.20;99.90;;;;;;5130908;27;20410;-73
2022/11/15 04:33:03;;;;;;;42.70;23.65;;;8.20;99.90;;;;;;5131322;27;20414;-73
2022/11/15 04:35:29;;;;;;;42.17;23.23;;;8.20;99.90;;;;;;5130868;27;20426;-73
2022/11/15 04:37:55;;;;;;;45.58;24.52;;;8.20;99.90;;;;;;5117394;27;20466;-73
2022/11/15 04:40:21;;;;;;;45.97;24.25;;;8.20;99.90;;;;;;5130735;27;20414;-73
2022/11/15 04:42:47;;;;;;;52.55;25.77;;;8.20;99.90;;;;;;5131081;27;20760;-73
2022/11/15 04:45:12;;;;;;;53.47;26.20;;;8.20;99.90;;;;;;5121708;27;20759;-74
2022/11/15 04:47:38;;;;;;;57.85;27.80;;;8.10;99.90;;;;;;5126941;27;20793;-73
2022/11/15 04:50:04;;;;;;;56.90;27.70;;;8.20;99.90;;;;;;5111695;27;20996;-73
2022/11/15 04:52:30;;;;;;;61.07;27.73;;;8.20;99.90;;;;;;5098834;27;20429;-73
2022/11/15 04:54:55;;;;;;;60.07;28.03;;;8.20;99.90;;;;;;5130511;27;20424;-73
2022/11/15 04:57:21;;;;;;;60.87;28.53;;;8.20;99.90;;;;;;5130277;27;20460;-73
2022/11/15 04:59:46;;;;;;;61.40;29.13;;;8.10;99.90;;;;;;5130832;27;20760;-73
2022/11/15 05:02:12;;;;;;;61.58;29.23;;;8.10;99.90;;;;;;5130472;27;20401;-73
2022/11/15 05:04:37;;;;;;;63.27;29.50;;;8.20;99.90;;;;;;5130381;27;20395;-73
2022/11/15 05:07:06;;;;;;;67.55;30.30;;;8.20;99.90;;;;;;5126842;27;20417;-73
2022/11/15 05:09:31;;;;;;;64.50;29.15;;;8.20;99.90;;;;;;5110553;27;20401;-73
2022/11/15 05:11:57;;;;;;;66.50;30.17;;;8.20;99.90;;;;;;5107799;27;20405;-73
2022/11/15 05:14:23;;;;;;;68.47;31.33;;;8.20;99.90;;;;;;5111053;27;20407;-74
2022/11/15 05:16:48;;;;;;;67.30;30.95;;;8.20;99.90;;;;;;5098288;27;20794;-74
2022/11/15 05:19:14;;;;;;;69.60;30.63;;;8.20;99.90;;;;;;5120521;27;20453;-73
2022/11/15 05:21:40;;;;;;;64.72;29.92;;;8.20;99.90;;;;;;5107802;27;20406;-73
2022/11/15 05:24:06;;;;;;;70.37;31.43;;;8.20;99.90;;;;;;5123057;27;20434;-73
2022/11/15 05:26:32;;;;;;;65.72;29.67;;;8.20;99.90;;;;;;5129122;27;20428;-73
2022/11/15 05:28:59;;;;;;;66.37;31.80;;;8.20;99.90;;;;;;5120434;27;20436;-73
2022/11/15 05:31:25;;;;;;;75.78;32.75;;;8.20;99.90;;;;;;5124860;27;20415;-73
2022/11/15 05:33:51;;;;;;;77.20;32.92;;;8.20;99.90;;;;;;5129976;27;20391;-74
2022/11/15 05:36:36;;;;;;;73.88;32.08;;;8.20;99.90;;;;;;5097110;27;21309;-73
2022/11/15 05:39:03;;;;;;;82.93;34.22;;;8.20;99.90;;;;;;5122901;27;20739;-73
2022/11/15 05:41:38;;;;;;;80.20;34.50;;;8.20;99.90;;;;;;5114111;27;20402;-73
2022/11/15 05:44:08;;;;;;;84.97;34.42;;;8.30;99.90;;;;;;5129439;27;20418;-73
2022/11/15 05:46:35;;;;;;;84.70;35.45;;;8.30;99.90;;;;;;5116499;27;20896;-74
2022/11/15 05:49:01;;;;;;;83.73;34.63;;;8.30;99.90;;;;;;5115891;27;20818;-73
2022/11/15 05:51:29;;;;;;;85.23;36.33;;;8.30;99.90;;;;;;5075483;27;20447;-74
2022/11/15 05:53:58;;;;;;;91.75;37.42;;;8.30;99.90;;;;;;5129520;27;20403;-73
2022/11/15 05:56:24;;;;;;;102.20;37.13;;;8.30;99.90;;;;;;5110370;27;20533;-73
2022/11/15 05:58:53;;;;;;;102.10;39.35;;;8.30;99.90;;;;;;5128140;27;20395;-74
2022/11/15 06:01:18;;;;;;;106.87;40.27;;;8.40;99.90;;;;;;5101775;28;20432;-73
2022/11/15 06:03:44;;;;;;;112.33;40.10;;;8.40;99.90;;;;;;5097268;27;20854;-73
2022/11/15 06:06:09;;;;;;;120.43;40.83;;;8.40;99.90;;;;;;5086346;28;20766;-73
2022/11/15 06:08:35;;;;;;;120.93;42.90;;;8.40;99.90;;;;;;5116752;27;20439;-74
2022/11/15 06:11:07;;;;;;;120.05;42.47;;;8.40;99.90;;;;;;5117135;27;20390;-73
2022/11/15 06:13:34;;;;;;;118.65;42.47;;;8.40;99.90;;;;;;5129210;27;20482;-73
2022/11/15 06:15:59;;;;;;;124.20;42.75;;;8.50;99.90;;;;;;5128201;27;20557;-74
2022/11/15 06:18:25;;;;;;;127.78;43.17;;;8.50;99.90;;;;;;5115512;27;20479;-73
2022/11/15 06:20:51;;;;;;;139.05;43.85;;;8.50;99.90;;;;;;5120275;27;20388;-74
2022/11/15 06:23:17;;;;;;;135.93;43.40;;;8.50;99.90;;;;;;5111210;28;20424;-73
2022/11/15 06:25:43;;;;;;;135.75;45.92;;;8.50;99.90;;;;;;5122393;28;20405;-73
2022/11/15 06:28:08;;;;;;;136.25;45.60;;;8.60;99.90;;;;;;5093386;28;20432;-73
2022/11/15 06:30:34;;;;;;;137.90;46.60;;;8.60;99.90;;;;;;5129229;28;20518;-73
2022/11/15 06:33:05;;;;;;;133.45;45.50;;;8.60;99.90;;;;;;5103421;28;20412;-73
2022/11/15 06:35:33;;;;;;;134.47;45.73;;;8.60;99.90;;;;;;5119054;28;20810;-73
2022/11/15 06:38:06;;;;;;;136.20;45.60;;;8.70;99.90;;;;;;5108133;28;20419;-74
2022/11/15 06:40:36;;;;;;;135.30;46.03;;;8.70;99.90;;;;;;5118319;28;20407;-74
2022/11/15 06:43:03;;;;;;;146.27;45.92;;;8.70;99.90;;;;;;5125934;28;20460;-73
2022/11/15 06:45:29;;;;;;;134.97;45.77;;;8.80;99.90;;;;;;5110746;28;20791;-74
2022/11/15 06:47:55;;;;;;;126.30;45.42;;;8.80;99.90;;;;;;5128163;28;20382;-74
2022/11/15 06:50:20;;;;;;;132.70;46.42;;;8.80;99.90;;;;;;5126712;28;21010;-74
2022/11/15 06:52:46;;;;;;;119.18;44.85;;;8.90;99.90;;;;;;5106227;28;20407;-74
2022/11/15 06:55:12;;;;;;;131.50;46.17;;;8.90;99.90;;;;;;5127360;28;20415;-74
2022/11/15 06:57:47;;;;;;;116.80;43.90;;;8.90;99.90;;;;;;5122285;28;20408;-74
2022/11/15 07:00:13;;;;;;;111.88;43.53;;;8.90;99.90;;;;;;5120431;28;20411;-73
2022/11/15 07:02:39;;;;;;;114.85;42.40;;;9.00;99.90;;;;;;5105447;28;20780;-74
2022/11/15 07:05:05;;;;;;;102.57;43.43;;;9.00;99.90;;;;;;5109983;28;20406;-74
2022/11/15 07:07:30;;;;;;;108.88;43.65;;;9.00;99.90;;;;;;5085971;28;20462;-73
2022/11/15 07:09:56;;;;;;;105.93;43.58;;;9.10;99.90;;;;;;5121115;28;20991;-73
2022/11/15 07:12:21;;;;;;;111.67;42.60;;;9.10;99.90;;;;;;5126707;28;20421;-74
2022/11/15 07:14:47;;;;;;;101.00;42.08;;;9.10;99.90;;;;;;5118951;28;20493;-73
2022/11/15 07:17:12;;;;;;;100.83;41.77;;;9.20;99.90;;;;;;5087312;28;20427;-73
2022/11/15 07:19:38;;;;;;;97.45;41.50;;;9.20;99.90;;;;;;5108361;28;20920;-73
2022/11/15 07:22:03;;;;;;;89.17;39.90;;;9.30;99.90;;;;;;5122629;28;20406;-73
2022/11/15 07:24:29;;;;;;;90.07;39.45;;;9.30;99.90;;;;;;5120903;28;20485;-73
2022/11/15 07:26:55;;;;;;;87.17;38.77;;;9.30;99.90;;;;;;5127162;28;20418;-73
2022/11/15 07:29:20;;;;;;;89.88;39.15;;;9.30;99.90;;;;;;5129542;27;20395;-74
2022/11/15 07:31:46;;;;;;;82.53;37.30;;;9.40;99.90;;;;;;5130181;27;20418;-73
2022/11/15 07:34:11;;;;;;;75.57;37.05;;;9.40;99.90;;;;;;5131700;27;20481;-73
2022/11/15 07:36:37;;;;;;;79.17;36.50;;;9.40;99.90;;;;;;5119187;27;20428;-73
2022/11/15 07:39:02;;;;;;;69.18;35.50;;;9.50;99.90;;;;;;5130172;27;20951;-73
2022/11/15 07:41:31;;;;;;;75.13;35.35;;;9.50;99.90;;;;;;5126004;27;20410;-73
2022/11/15 07:43:57;;;;;;;72.33;34.67;;;9.60;99.90;;;;;;5107294;27;20424;-73
2022/11/15 07:46:23;;;;;;;70.17;34.63;;;9.60;99.90;;;;;;5130478;27;20407;-73
2022/11/15 07:48:50;;;;;;;65.57;33.35;;;9.60;99.90;;;;;;5122011;27;20602;-73
2022/11/15 07:51:16;;;;;;;64.40;33.03;;;9.60;99.90;;;;;;5098190;27;20609;-73
2022/11/15 07:53:43;;;;;;;66.53;32.90;;;9.70;99.90;;;;;;5126777;27;20903;-73
2022/11/15 07:56:09;;;;;;;63.72;31.90;;;9.70;99.90;;;;;;5118806;27;20475;-73
2022/11/15 07:58:35;;;;;;;57.55;31.50;;;9.70;99.90;;;;;;5129738;27;20440;-73
2022/11/15 08:01:08;;;;;;;61.45;30.45;;;9.70;99.90;;;;;;5108279;28;20401;-73
2022/11/15 08:03:34;;;;;;;55.92;30.40;;;9.70;99.90;;;;;;5120593;27;20778;-74
2022/11/15 08:06:00;;;;;;;54.90;30.15;;;9.80;99.90;;;;;;5129633;27;20390;-74
2022/11/15 08:08:26;;;;;;;56.85;30.63;;;9.80;99.90;;;;;;5122392;27;20444;-74
2022/11/15 08:10:51;;;;;;;54.33;30.50;;;9.80;99.90;;;;;;5128941;27;20410;-73
2022/11/15 08:13:17;;;;;;;56.70;29.88;;;9.80;99.90;;;;;;5129397;27;20399;-74
2022/11/15 08:15:43;;;;;;;54.00;29.30;;;9.90;99.90;;;;;;5111678;27;20424;-74
2022/11/15 08:18:14;;;;;;;48.97;28.20;;;9.90;99.90;;;;;;5081569;27;20399;-74
2022/11/15 08:20:41;;;;;;;50.08;29.02;;;9.90;99.90;;;;;;5103364;27;20461;-74
2022/11/15 08:23:07;;;;;;;50.55;28.27;;;10.00;99.90;;;;;;5130321;27;20414;-73
2022/11/15 08:25:34;;;;;;;47.55;27.63;;;10.00;99.90;;;;;;5111548;27;20418;-73
2022/11/15 08:28:03;;;;;;;51.20;28.52;;;10.00;99.90;;;;;;5117207;27;20393;-73
2022/11/15 08:30:29;;;;;;;46.15;27.52;;;10.00;99.90;;;;;;5128949;27;20415;-72
2022/11/15 08:32:57;;;;;;;49.00;28.17;;;10.10;99.90;;;;;;5128767;27;20793;-73
2022/11/15 08:35:23;;;;;;;47.42;27.35;;;10.10;99.90;;;;;;5129100;27;20784;-73
2022/11/15 08:37:49;;;;;;;48.03;27.15;;;10.20;99.90;;;;;;5130993;27;20391;-73
2022/11/15 08:40:15;;;;;;;46.60;27.70;;;10.20;99.90;;;;;;5105271;27;20425;-74
2022/11/15 08:42:41;;;;;;;45.55;26.95;;;10.20;99.90;;;;;;5128040;27;20425;-73
2022/11/15 08:45:08;;;;;;;47.10;27.27;;;10.20;99.90;;;;;;5111955;27;20486;-73
2022/11/15 08:47:34;;;;;;;42.10;26.48;;;10.30;99.90;;;;;;5111296;27;20411;-73
2022/11/15 08:50:00;;;;;;;42.55;25.55;;;10.30;99.90;;;;;;5126411;27;20800;-73
2022/11/15 08:52:25;;;;;;;43.50;26.35;;;10.40;99.90;;;;;;5130326;27;20398;-73
2022/11/15 08:54:51;;;;;;;41.95;26.38;;;10.50;99.90;;;;;;5119906;27;20396;-73
2022/11/15 08:57:17;;;;;;;41.10;25.97;;;10.60;99.90;;;;;;5103532;27;20412;-73
2022/11/15 08:59:43;;;;;;;36.50;24.55;;;10.70;99.90;;;;;;5107474;28;20420;-74
2022/11/15 09:02:15;;;;;;;40.10;24.85;;;10.70;99.90;;;;;;5125300;27;20418;-74
2022/11/15 09:04:42;;;;;;;41.43;24.97;;;10.80;99.90;;;;;;5118581;27;20409;-74
2022/11/15 09:07:11;;;;;;;37.15;23.67;;;10.80;99.90;;;;;;5111302;27;20525;-74
2022/11/15 09:09:37;;;;;;;37.97;23.50;;;10.90;99.90;;;;;;5119598;27;20419;-74
2022/11/15 09:12:04;;;;;;;37.75;23.77;;;10.90;99.90;;;;;;5125379;27;20533;-74
2022/11/15 09:14:30;;;;;;;35.75;23.58;;;10.90;99.90;;;;;;5128150;27;20391;-73
2022/11/15 09:16:56;;;;;;;38.13;23.43;;;10.90;99.90;;;;;;5124488;27;20452;-73
2022/11/15 09:19:21;;;;;;;34.23;22.97;;;10.90;99.90;;;;;;5110516;27;20742;-74
2022/11/15 09:21:47;;;;;;;32.78;22.05;;;11.00;99.90;;;;;;5124626;27;20422;-74
2022/11/15 09:24:13;;;;;;;32.37;21.93;;;11.10;99.90;;;;;;5127603;27;20844;-74
2022/11/15 09:26:39;;;;;;;30.20;21.02;;;11.30;99.90;;;;;;5127130;27;20413;-74
2022/11/15 09:29:04;;;;;;;29.95;21.25;;;11.40;99.90;;;;;;5108104;27;20408;-74
2022/11/15 09:31:30;;;;;;;29.63;20.60;;;11.50;99.90;;;;;;5107875;27;20761;-74
2022/11/15 09:33:56;;;;;;;29.98;20.55;;;11.60;99.90;;;;;;5123769;27;20422;-74
2022/11/15 09:36:21;;;;;;;29.17;19.67;;;11.70;99.90;;;;;;5120631;27;20438;-74
2022/11/15 09:38:47;;;;;;;30.35;19.98;;;11.70;99.90;;;;;;5122762;27;20422;-73
2022/11/15 09:41:12;;;;;;;27.23;19.90;;;11.70;99.90;;;;;;5095678;27;20442;-73
2022/11/15 09:43:55;;;;;;;29.73;20.15;;;11.70;99.90;;;;;;5124263;27;20433;-74
2022/11/15 09:46:35;;;;;;;26.55;20.30;;;11.70;99.90;;;;;;5103374;28;20422;-73
2022/11/15 09:49:02;;;;;;;28.95;19.95;;;11.70;99.90;;;;;;5099990;27;20459;-73
2022/11/15 09:51:32;;;;;;;30.05;21.15;;;11.70;99.90;;;;;;5116457;27;20397;-73
2022/11/15 09:54:07;;;;;;;27.48;20.55;;;11.70;99.90;;;;;;5126241;27;20559;-73
2022/11/15 09:56:41;;;;;;;28.00;20.40;;;11.70;99.90;;;;;;5122077;27;20778;-73
2022/11/15 09:59:34;;;;;;;29.03;21.43;;;11.70;99.90;;;;;;5094115;27;20406;-74
2022/11/15 10:02:23;;;;;;;29.15;20.92;;;11.70;99.90;;;;;;5127847;27;20459;-73
2022/11/15 10:04:50;;;;;;;31.03;20.40;;;11.70;99.90;;;;;;5127547;27;20971;-73
2022/11/15 10:07:44;;;;;;;30.60;21.35;;;11.70;99.90;;;;;;5116697;27;20426;-73
2022/11/15 10:10:22;;;;;;;27.95;20.65;;;11.70;99.90;;;;;;5124400;27;20426;-74
2022/11/15 10:12:50;;;;;;;28.42;21.45;;;11.70;99.90;;;;;;5099954;27;20400;-74
2022/11/15 10:15:26;;;;;;;29.60;22.10;;;11.70;99.90;;;;;;5117958;27;20416;-73
2022/11/15 10:18:19;;;;;;;28.85;21.75;;;11.70;99.90;;;;;;5118288;27;20425;-73
2022/11/15 10:20:49;;;;;;;29.05;22.15;;;11.70;99.90;;;;;;5105223;27;20423;-73
2022/11/15 10:23:19;;;;;;;31.37;22.17;;;11.70;99.90;;;;;;5109093;27;20414;-73
2022/11/15 10:25:44;;;;;;;30.40;21.90;;;11.70;99.90;;;;;;5125428;27;20971;-73
2022/11/15 10:28:30;;;;;;;29.23;22.13;;;11.70;99.90;;;;;;5091364;28;20478;-73
2022/11/15 10:31:00;;;;;;;32.38;23.60;;;11.70;99.90;;;;;;5121577;28;20419;-73
2022/11/15 10:33:29;;;;;;;32.22;23.27;;;11.70;99.90;;;;;;5118000;28;20433;-73
2022/11/15 10:36:12;;;;;;;32.77;23.43;;;11.80;99.90;;;;;;5091843;28;20464;-75
2022/11/15 10:38:50;;;;;;;31.58;22.85;;;11.80;99.90;;;;;;5122359;28;20509;-74
2022/11/15 10:41:21;;;;;;;34.03;24.42;;;11.80;99.90;;;;;;5122404;28;20411;-75
2022/11/15 10:44:12;;;;;;;32.63;23.80;;;11.80;99.90;;;;;;5122559;28;20925;-75
2022/11/15 10:46:42;;;;;;;37.40;25.35;;;11.80;99.90;;;;;;5102834;28;20511;-75
2022/11/15 10:49:13;;;;;;;33.35;24.45;;;11.80;99.90;;;;;;5128836;28;20406;-74
2022/11/15 10:51:48;;;;;;;36.47;24.75;;;11.80;99.90;;;;;;5123638;28;20426;-75
2022/11/15 10:54:21;;;;;;;39.57;25.30;;;11.80;99.90;;;;;;5085044;28;20418;-75
2022/11/15 10:56:53;;;;;;;36.55;25.35;;;11.80;99.90;;;;;;5080440;28;20515;-75
2022/11/15 10:59:31;;;;;;;37.08;25.10;;;11.80;99.90;;;;;;5128423;28;21265;-75
2022/11/15 11:01:57;;;;;;;36.38;24.92;;;11.80;99.90;;;;;;5124132;28;20474;-74
2022/11/15 11:04:23;;;;;;;35.88;25.25;;;11.80;99.90;;;;;;5130967;27;20980;-75
2022/11/15 11:06:50;;;;;;;38.40;24.63;;;11.90;99.90;;;;;;5097155;27;20918;-73
2022/11/15 11:09:25;;;;;;;33.92;24.23;;;11.80;99.90;;;;;;5106122;27;20398;-74
2022/11/15 11:11:52;;;;;;;32.45;23.17;;;11.80;99.90;;;;;;5109777;27;20404;-74
2022/11/15 11:14:27;;;;;;;35.35;23.92;;;11.80;99.90;;;;;;5127880;27;20426;-74
2022/11/15 11:17:19;;;;;;;33.70;23.80;;;11.80;99.90;;;;;;5108993;28;20428;-74
2022/11/15 11:20:13;;;;;;;33.67;24.42;;;11.90;99.90;;;;;;5127834;27;20467;-74
2022/11/15 11:23:09;;;;;;;35.37;25.20;;;11.80;99.90;;;;;;5116089;27;20411;-74
2022/11/15 11:25:50;;;;;;;37.88;25.55;;;11.80;99.90;;;;;;5121552;27;20570;-75
2022/11/15 11:28:37;;;;;;;38.37;26.33;;;11.80;99.90;;;;;;5128539;27;20410;-75
2022/11/15 11:31:23;;;;;;;40.73;27.20;;;11.90;99.90;;;;;;5108227;28;20464;-74
2022/11/15 11:34:18;;;;;;;35.85;24.98;;;11.90;99.90;;;;;;5125535;27;20407;-74
2022/11/15 11:37:02;;;;;;;34.28;23.85;;;11.90;99.90;;;;;;5090664;27;20509;-75
2022/11/15 11:39:44;;;;;;;33.28;24.25;;;11.80;99.90;;;;;;5130901;27;20822;-74
2022/11/15 11:42:15;;;;;;;32.27;21.63;;;11.80;99.90;;;;;;5105645;27;20435;-75
2022/11/15 11:45:10;;;;;;;30.67;21.55;;;11.80;99.90;;;;;;5127719;27;20426;-74
2022/11/15 11:47:40;;;;;;;31.80;22.40;;;11.90;99.90;;;;;;5125762;27;20429;-74
2022/11/15 11:50:25;;;;;;;29.95;22.48;;;11.90;99.90;;;;;;5113817;27;20459;-74
2022/11/15 11:53:04;;;;;;;29.15;21.83;;;11.90;99.90;;;;;;5124351;27;20836;-74
2022/11/15 11:55:45;;;;;;;27.58;20.77;;;11.90;99.90;;;;;;5107527;27;20428;-74
2022/11/15 11:58:30;;;;;;;28.13;21.52;;;12.00;99.90;;;;;;5106995;27;20407;-74
2022/11/15 12:01:15;;;;;;;26.17;21.27;;;12.00;99.90;;;;;;5128797;27;20407;-74
2022/11/15 12:04:09;;;;;;;27.47;21.97;;;12.00;99.90;;;;;;5130694;27;20403;-74
2022/11/15 12:06:50;;;;;;;28.50;21.67;;;12.00;99.90;;;;;;5111276;27;21256;-74
2022/11/15 12:09:34;;;;;;;27.33;21.13;;;12.00;99.90;;;;;;5128480;27;20958;-74
2022/11/15 12:12:38;;;;;;;26.67;20.63;;;11.90;99.90;;;;;;5110756;27;20410;-74
2022/11/15 12:15:09;;;;;;;26.50;21.63;;;11.90;99.90;;;;;;5076623;27;20780;-73
2022/11/15 12:17:38;;;;;;;28.47;21.07;;;12.00;99.90;;;;;;5130023;27;20551;-72
2022/11/15 12:20:14;;;;;;;26.85;21.85;;;12.00;99.90;;;;;;5119340;27;20900;-71
2022/11/15 12:22:49;;;;;;;28.15;22.27;;;12.00;99.90;;;;;;5131392;27;20391;-73
2022/11/15 12:25:17;;;;;;;25.50;20.33;;;12.10;99.90;;;;;;5088348;27;20437;-73
2022/11/15 12:28:06;;;;;;;24.95;20.90;;;12.10;99.90;;;;;;5123233;27;20436;-73
2022/11/15 12:30:48;;;;;;;25.48;21.38;;;12.20;99.90;;;;;;5111258;27;20432;-73
2022/11/15 12:33:40;;;;;;;22.67;19.05;;;12.30;99.90;;;;;;5128158;27;20506;-73
2022/11/15 12:36:22;;;;;;;23.25;19.48;;;12.30;99.90;;;;;;5124940;27;20434;-73
2022/11/15 12:39:02;;;;;;;21.95;19.23;;;12.20;99.90;;;;;;5124918;27;20413;-73
2022/11/15 12:41:36;;;;;;;23.00;19.00;;;12.20;99.90;;;;;;5105807;28;20467;-73
2022/11/15 12:44:03;;;;;;;24.17;18.88;;;12.20;99.90;;;;;;5110736;27;20505;-73
2022/11/15 12:46:29;;;;;;;21.77;18.42;;;12.20;99.90;;;;;;5109000;28;20420;-73
2022/11/15 12:49:07;;;;;;;23.77;19.23;;;12.30;99.90;;;;;;5093415;27;20430;-73
2022/11/15 12:51:46;;;;;;;20.17;17.95;;;12.50;99.90;;;;;;5111234;28;20401;-73
2022/11/15 12:54:24;;;;;;;19.75;16.60;;;12.70;99.90;;;;;;5105011;28;20427;-73
2022/11/15 12:57:08;;;;;;;19.33;16.00;;;12.80;99.90;;;;;;5123752;27;20454;-73
2022/11/15 12:59:54;;;;;;;18.80;16.00;;;12.90;99.90;;;;;;5129747;27;20818;-73
2022/11/15 13:02:37;;;;;;;16.52;13.88;;;12.90;99.90;;;;;;5106951;28;20812;-72